createdAt,value
2019-05-13T00:04:53.188Z,16.8
2019-05-13T00:10:25.783Z,18
2019-05-13T00:15:58.680Z,14.4
2019-05-13T00:21:33.823Z,14.4
2019-05-13T00:27:04.632Z,14.4
2019-05-13T00:32:37.495Z,15.6
2019-05-13T00:38:10.391Z,16.8
2019-05-13T00:43:44.385Z,18
2019-05-13T00:49:16.160Z,18
2019-05-13T00:54:49.088Z,15.6
2019-05-13T01:00:24.154Z,16.8
2019-05-13T01:05:54.911Z,13.2
2019-05-13T01:11:27.669Z,14.4
2019-05-13T01:17:00.483Z,16.8
2019-05-13T01:22:34.360Z,14.4
2019-05-13T01:28:06.158Z,15.6
2019-05-13T01:33:39.091Z,18
2019-05-13T01:39:13.834Z,16.8
2019-05-13T01:44:44.724Z,16.8
2019-05-13T01:50:17.595Z,14.4
2019-05-13T01:55:50.460Z,15.6
2019-05-13T02:01:24.123Z,18
2019-05-13T02:06:56.227Z,14.4
2019-05-13T02:12:29.102Z,15.6
2019-05-13T02:18:03.910Z,15.6
2019-05-13T02:23:34.835Z,16.8
2019-05-13T02:29:07.768Z,16.8
2019-05-13T02:34:43.624Z,16.8
2019-05-13T02:40:13.967Z,14.4
2019-05-13T02:45:46.503Z,14.4
2019-05-13T02:51:22.704Z,16.8
2019-05-13T02:56:52.736Z,16.8
2019-05-13T03:02:24.967Z,18
2019-05-13T03:07:57.901Z,14.4
2019-05-13T03:13:32.527Z,19.2
2019-05-13T03:19:03.515Z,15.6
2019-05-13T03:24:36.375Z,16.8
2019-05-13T03:30:09.220Z,18
2019-05-13T03:35:45.108Z,20.4
2019-05-13T03:41:14.938Z,18
2019-05-13T03:46:47.772Z,16.8
2019-05-13T03:52:22.451Z,21.5
2019-05-13T03:57:53.612Z,22.8
2019-05-13T04:03:26.329Z,21.5
2019-05-13T04:09:16.936Z,23.9
2019-05-13T04:14:33.323Z,19.2
2019-05-13T04:20:04.977Z,21.5
2019-05-13T04:25:39.727Z,23.9
2019-05-13T04:31:13.479Z,23.9
2019-05-13T04:36:43.666Z,22.8
2019-05-13T04:42:16.567Z,19.2
2019-05-13T04:47:52.446Z,26.4
2019-05-13T04:53:22.946Z,23.9
2019-05-13T04:58:55.676Z,21.5
2019-05-13T05:04:31.679Z,22.8
2019-05-13T05:10:17.220Z,29.9
2019-05-13T05:15:35.109Z,32.3
2019-05-13T05:21:08.334Z,39.6
2019-05-13T05:26:42.029Z,34.8
2019-05-13T05:32:14.878Z,36
2019-05-13T05:37:48.176Z,36
2019-05-13T05:43:22.244Z,40.8
2019-05-13T05:48:54.811Z,34.8
2019-05-13T05:54:32.667Z,38.4
2019-05-13T06:00:06.071Z,38.4
2019-05-13T06:05:41.696Z,36
2019-05-13T06:11:12.926Z,36
2019-05-13T06:16:46.481Z,38.4
2019-05-13T06:22:21.604Z,42
2019-05-13T06:27:53.540Z,38.4
2019-05-13T06:33:31.731Z,85.2
2019-05-13T06:39:05.088Z,45.6
2019-05-13T06:44:38.718Z,54
2019-05-13T06:50:12.381Z,49.2
2019-05-13T06:55:46.024Z,52.8
2019-05-13T07:01:21.662Z,52.8
2019-05-13T07:07:08.696Z,51.6
2019-05-13T07:12:27.029Z,50.3
2019-05-13T07:18:02.251Z,54
2019-05-13T07:23:34.575Z,47.9
2019-05-13T07:29:09.787Z,54
2019-05-13T07:34:43.741Z,52.8
2019-05-13T07:40:16.067Z,55.2
2019-05-13T07:45:51.354Z,50.3
2019-05-13T07:51:23.696Z,67.2
2019-05-13T07:56:57.492Z,56.4
2019-05-13T08:02:32.033Z,47.9
2019-05-13T08:08:05.175Z,52.8
2019-05-13T08:13:39.035Z,51.6
2019-05-13T08:19:12.990Z,46.8
2019-05-13T08:24:46.830Z,49.2
2019-05-13T08:30:22.668Z,55.2
2019-05-13T08:35:58.617Z,55.2
2019-05-13T08:41:28.768Z,47.9
2019-05-13T08:47:03.426Z,52.8
2019-05-13T08:52:36.748Z,55.2
2019-05-13T08:58:12.425Z,45.6
2019-05-13T09:03:44.893Z,47.9
2019-05-13T09:09:18.952Z,44.3
2019-05-13T09:14:57.521Z,59.9
2019-05-13T09:20:32.271Z,56.4
2019-05-13T09:26:05.873Z,50.3
2019-05-13T09:31:41.520Z,58.8
2019-05-13T09:37:14.110Z,59.9
2019-05-13T09:42:52.026Z,59.9
2019-05-13T09:48:22.883Z,68.4
2019-05-13T09:53:56.731Z,58.8
2019-05-13T09:59:31.732Z,59.9
2019-05-13T10:05:05.214Z,64.7
2019-05-13T10:10:39.474Z,57.6
2019-05-13T10:16:13.816Z,57.6
2019-05-13T10:21:48.063Z,62.4
2019-05-13T10:27:22.735Z,54
2019-05-13T10:32:59.385Z,56.4
2019-05-13T10:38:32.317Z,56.4
2019-05-13T10:44:05.428Z,55.2
2019-05-13T10:49:42.387Z,58.8
2019-05-13T10:55:14.212Z,46.8
2019-05-13T11:00:49.096Z,59.9
2019-05-13T11:06:23.118Z,51.6
2019-05-13T11:11:57.655Z,59.9
2019-05-13T11:17:33.184Z,49.2
2019-05-13T11:23:06.597Z,50.3
2019-05-13T11:28:42.843Z,50.3
2019-05-13T11:34:15.650Z,56.4
2019-05-13T11:39:51.612Z,54
2019-05-13T11:45:24.762Z,52.8
2019-05-13T11:50:59.286Z,58.8
2019-05-13T11:56:33.959Z,54
2019-05-13T12:02:08.287Z,54
2019-05-13T12:07:42.725Z,47.9
2019-05-13T12:13:17.188Z,49.2
2019-05-13T12:18:52.786Z,40.8
2019-05-13T12:24:26.488Z,44.3
2019-05-13T12:30:02.979Z,49.2
2019-05-13T12:35:35.994Z,56.4
2019-05-13T12:41:12.760Z,51.6
2019-05-13T12:46:50.091Z,47.9
2019-05-13T12:52:22.133Z,52.8
2019-05-13T12:57:54.432Z,50.3
2019-05-13T13:03:28.963Z,51.6
2019-05-13T13:09:03.566Z,46.8
2019-05-13T13:14:39.688Z,51.6
2019-05-13T13:20:14.799Z,44.3
2019-05-13T13:25:52.830Z,55.2
2019-05-13T13:31:24.933Z,49.2
2019-05-13T13:36:57.611Z,46.8
2019-05-13T13:42:33.076Z,55.2
2019-05-13T13:48:07.266Z,49.2
2019-05-13T13:53:44.212Z,46.8
2019-05-13T13:59:16.095Z,51.6
2019-05-13T14:04:53.964Z,49.2
2019-05-13T14:10:24.943Z,56.4
2019-05-13T14:16:01.818Z,46.8
2019-05-13T14:21:34.483Z,49.2
2019-05-13T14:27:11.758Z,51.6
2019-05-13T14:32:44.211Z,55.2
2019-05-13T14:38:19.227Z,51.6
2019-05-13T14:43:54.288Z,45.6
2019-05-13T14:49:31.650Z,47.9
2019-05-13T14:55:04.438Z,55.2
2019-05-13T15:00:41.803Z,54
2019-05-13T15:06:14.444Z,54
2019-05-13T15:11:52.425Z,52.8
2019-05-13T15:17:24.476Z,51.6
2019-05-13T15:22:59.520Z,54
2019-05-13T15:28:34.354Z,47.9
2019-05-13T15:34:08.820Z,43.1
2019-05-13T15:39:43.110Z,56.4
2019-05-13T15:45:17.245Z,55.2
2019-05-13T15:50:51.457Z,46.8
2019-05-13T15:56:25.350Z,51.6
2019-05-13T16:02:02.044Z,45.6
2019-05-13T16:07:34.219Z,43.1
2019-05-13T16:13:08.563Z,45.6
2019-05-13T16:18:42.897Z,42
2019-05-13T16:24:17.081Z,43.1
2019-05-13T16:29:51.591Z,59.9
2019-05-13T16:35:25.224Z,51.6
2019-05-13T16:41:03.716Z,67.2
2019-05-13T16:46:37.762Z,43.1
2019-05-13T16:52:11.935Z,37.1
2019-05-13T16:57:51.301Z,52.8
2019-05-13T17:03:24.914Z,40.8
2019-05-13T17:08:59.300Z,40.8
2019-05-13T17:14:33.657Z,36
2019-05-13T17:20:12.794Z,50.3
2019-05-13T17:25:46.228Z,36
2019-05-13T17:31:24.529Z,57.6
2019-05-13T17:36:58.432Z,32.3
2019-05-13T17:42:32.281Z,36
2019-05-13T17:48:06.127Z,39.6
2019-05-13T17:53:41.235Z,37.1
2019-05-13T17:59:16.160Z,34.8
2019-05-13T18:04:47.492Z,40.8
2019-05-13T18:10:22.499Z,45.6
2019-05-13T18:15:55.281Z,37.1
2019-05-13T18:21:31.618Z,32.3
2019-05-13T18:27:02.960Z,36
2019-05-13T18:32:36.677Z,31.2
2019-05-13T18:38:11.898Z,32.3
2019-05-13T18:43:43.900Z,25.1
2019-05-13T18:49:17.390Z,16.8
2019-05-13T18:54:51.349Z,16.8
2019-05-13T19:00:24.210Z,19.2
2019-05-13T19:05:57.637Z,22.8
2019-05-13T19:11:31.687Z,20.4
2019-05-13T19:17:04.255Z,16.8
2019-05-13T19:22:37.529Z,14.4
2019-05-13T19:28:11.804Z,13.2
2019-05-13T19:33:43.875Z,11.9
2019-05-13T19:39:17.026Z,14.4
2019-05-13T19:44:51.120Z,14.4
2019-05-13T19:50:23.272Z,9.6
2019-05-13T19:55:56.289Z,11.9
2019-05-13T20:01:29.346Z,11.9
2019-05-13T20:07:02.487Z,15.6
2019-05-13T20:12:35.502Z,14.4
2019-05-13T20:18:08.562Z,13.2
2019-05-13T20:23:41.682Z,15.6
2019-05-13T20:29:14.720Z,14.4
2019-05-13T20:34:47.760Z,10.7
2019-05-13T20:40:22.016Z,10.7
2019-05-13T20:45:53.687Z,11.9
2019-05-13T20:51:26.723Z,11.9
2019-05-13T20:57:01.754Z,13.2
2019-05-13T21:02:32.655Z,10.7
2019-05-13T21:08:05.632Z,10.7
2019-05-13T21:13:38.518Z,10.7
2019-05-13T21:19:12.353Z,10.7
2019-05-13T21:24:44.293Z,10.7
2019-05-13T21:30:17.221Z,10.7
2019-05-13T21:35:51.084Z,11.9
2019-05-13T21:41:23.096Z,13.2
2019-05-13T21:46:55.988Z,13.2
2019-05-13T21:52:28.911Z,11.9
2019-05-13T21:58:03.242Z,10.7
2019-05-13T22:03:34.891Z,10.7
2019-05-13T22:09:07.881Z,10.7
2019-05-13T22:14:41.245Z,10.7
2019-05-13T22:20:13.799Z,10.7
2019-05-13T22:25:48.125Z,11.9
2019-05-13T22:31:22.047Z,8.4
2019-05-13T22:36:52.776Z,8.4
2019-05-13T22:42:25.693Z,10.7
2019-05-13T22:47:58.737Z,9.6
2019-05-13T22:53:32.031Z,10.7
2019-05-13T22:59:04.546Z,10.7
2019-05-13T23:04:37.496Z,11.9
2019-05-13T23:10:11.769Z,14.4
2019-05-13T23:15:43.499Z,15.6
2019-05-13T23:21:16.519Z,15.6
2019-05-13T23:26:51.500Z,21.5
2019-05-13T23:32:22.503Z,19.2
2019-05-13T23:37:55.626Z,19.2
2019-05-13T23:43:30.890Z,21.5
2019-05-13T23:49:01.617Z,20.4
2019-05-13T23:54:34.719Z,21.5
